sensor_id;sensor_type;location;lat;lon;timestamp;P1;durP1;ratioP1;P2;durP2;ratioP2
45420;SDS011;55462;47.042;8.292;2023-10-09T00:00:33;8.93;;;3.78;;
45420;SDS011;55462;47.042;8.292;2023-10-09T00:03:04;14.90;;;4.65;;
45420;SDS011;55462;47.042;8.292;2023-10-09T00:05:31;10.05;;;4.00;;
45420;SDS011;55462;47.042;8.292;2023-10-09T00:08:15;18.73;;;4.28;;
45420;SDS011;55462;47.042;8.292;2023-10-09T00:10:51;15.88;;;4.35;;
45420;SDS011;55462;47.042;8.292;2023-10-09T00:13:20;12.80;;;4.72;;
45420;SDS011;55462;47.042;8.292;2023-10-09T00:15:55;10.15;;;3.95;;
45420;SDS011;55462;47.042;8.292;2023-10-09T00:18:34;14.40;;;4.18;;
45420;SDS011;55462;47.042;8.292;2023-10-09T00:20:59;13.63;;;4.05;;
45420;SDS011;55462;47.042;8.292;2023-10-09T00:23:40;13.77;;;4.28;;
45420;SDS011;55462;47.042;8.292;2023-10-09T00:26:06;11.82;;;4.30;;
45420;SDS011;55462;47.042;8.292;2023-10-09T00:28:52;12.57;;;4.05;;
45420;SDS011;55462;47.042;8.292;2023-10-09T00:31:18;10.25;;;3.80;;
45420;SDS011;55462;47.042;8.292;2023-10-09T00:33:58;17.27;;;4.35;;
45420;SDS011;55462;47.042;8.292;2023-10-09T00:36:43;13.35;;;3.85;;
45420;SDS011;55462;47.042;8.292;2023-10-09T00:39:15;11.13;;;4.15;;
45420;SDS011;55462;47.042;8.292;2023-10-09T00:41:47;13.65;;;4.28;;
45420;SDS011;55462;47.042;8.292;2023-10-09T00:44:12;15.18;;;4.55;;
45420;SDS011;55462;47.042;8.292;2023-10-09T00:46:37;17.55;;;4.50;;
45420;SDS011;55462;47.042;8.292;2023-10-09T00:49:07;15.48;;;4.13;;
45420;SDS011;55462;47.042;8.292;2023-10-09T00:51:35;12.52;;;4.20;;
45420;SDS011;55462;47.042;8.292;2023-10-09T00:54:01;14.98;;;4.00;;
45420;SDS011;55462;47.042;8.292;2023-10-09T00:56:40;13.55;;;3.67;;
45420;SDS011;55462;47.042;8.292;2023-10-09T00:59:08;14.63;;;4.15;;
45420;SDS011;55462;47.042;8.292;2023-10-09T01:01:38;10.77;;;3.72;;
45420;SDS011;55462;47.042;8.292;2023-10-09T01:04:09;10.15;;;3.42;;
45420;SDS011;55462;47.042;8.292;2023-10-09T01:06:40;14.88;;;4.28;;
45420;SDS011;55462;47.042;8.292;2023-10-09T01:09:13;19.67;;;4.30;;
45420;SDS011;55462;47.042;8.292;2023-10-09T01:11:42;16.08;;;4.70;;
45420;SDS011;55462;47.042;8.292;2023-10-09T01:14:13;11.82;;;3.60;;
45420;SDS011;55462;47.042;8.292;2023-10-09T01:16:39;14.20;;;3.65;;
45420;SDS011;55462;47.042;8.292;2023-10-09T01:19:07;11.45;;;4.03;;
45420;SDS011;55462;47.042;8.292;2023-10-09T01:21:48;11.25;;;4.35;;
45420;SDS011;55462;47.042;8.292;2023-10-09T01:24:15;13.32;;;3.95;;
45420;SDS011;55462;47.042;8.292;2023-10-09T01:26:41;13.18;;;4.18;;
45420;SDS011;55462;47.042;8.292;2023-10-09T01:29:15;17.33;;;4.45;;
45420;SDS011;55462;47.042;8.292;2023-10-09T01:31:44;15.90;;;4.90;;
45420;SDS011;55462;47.042;8.292;2023-10-09T01:34:25;13.48;;;4.00;;
45420;SDS011;55462;47.042;8.292;2023-10-09T01:37:12;14.45;;;4.10;;
45420;SDS011;55462;47.042;8.292;2023-10-09T01:39:45;11.32;;;3.92;;
45420;SDS011;55462;47.042;8.292;2023-10-09T01:42:10;13.43;;;3.67;;
45420;SDS011;55462;47.042;8.292;2023-10-09T01:44:36;9.70;;;3.92;;
45420;SDS011;55462;47.042;8.292;2023-10-09T01:47:08;11.35;;;3.95;;
45420;SDS011;55462;47.042;8.292;2023-10-09T01:49:34;15.27;;;3.92;;
45420;SDS011;55462;47.042;8.292;2023-10-09T01:52:02;14.18;;;4.13;;
45420;SDS011;55462;47.042;8.292;2023-10-09T01:54:36;16.60;;;4.00;;
45420;SDS011;55462;47.042;8.292;2023-10-09T01:57:03;18.42;;;4.28;;
45420;SDS011;55462;47.042;8.292;2023-10-09T01:59:31;9.38;;;3.67;;
45420;SDS011;55462;47.042;8.292;2023-10-09T02:01:57;15.13;;;4.10;;
45420;SDS011;55462;47.042;8.292;2023-10-09T02:04:25;8.63;;;3.67;;
45420;SDS011;55462;47.042;8.292;2023-10-09T02:06:50;15.85;;;4.35;;
45420;SDS011;55462;47.042;8.292;2023-10-09T02:09:18;10.85;;;3.55;;
45420;SDS011;55462;47.042;8.292;2023-10-09T02:11:45;9.88;;;4.43;;
45420;SDS011;55462;47.042;8.292;2023-10-09T02:14:11;12.43;;;3.97;;
45420;SDS011;55462;47.042;8.292;2023-10-09T02:16:48;13.27;;;3.53;;
45420;SDS011;55462;47.042;8.292;2023-10-09T02:19:32;12.82;;;4.32;;
45420;SDS011;55462;47.042;8.292;2023-10-09T02:22:01;13.85;;;4.18;;
45420;SDS011;55462;47.042;8.292;2023-10-09T02:24:39;16.15;;;3.92;;
45420;SDS011;55462;47.042;8.292;2023-10-09T02:27:18;7.93;;;3.80;;
45420;SDS011;55462;47.042;8.292;2023-10-09T02:30:06;11.05;;;4.00;;
45420;SDS011;55462;47.042;8.292;2023-10-09T02:32:41;7.65;;;3.60;;
45420;SDS011;55462;47.042;8.292;2023-10-09T02:35:08;9.73;;;3.63;;
45420;SDS011;55462;47.042;8.292;2023-10-09T02:37:59;14.07;;;4.55;;
45420;SDS011;55462;47.042;8.292;2023-10-09T02:40:28;12.20;;;4.25;;
45420;SDS011;55462;47.042;8.292;2023-10-09T02:42:58;14.57;;;4.03;;
45420;SDS011;55462;47.042;8.292;2023-10-09T02:45:23;17.15;;;4.43;;
45420;SDS011;55462;47.042;8.292;2023-10-09T02:47:54;12.63;;;4.00;;
45420;SDS011;55462;47.042;8.292;2023-10-09T02:50:20;10.82;;;3.63;;
45420;SDS011;55462;47.042;8.292;2023-10-09T02:52:47;13.02;;;3.63;;
45420;SDS011;55462;47.042;8.292;2023-10-09T02:55:17;13.48;;;4.05;;
45420;SDS011;55462;47.042;8.292;2023-10-09T02:57:51;9.30;;;3.33;;
45420;SDS011;55462;47.042;8.292;2023-10-09T03:00:21;14.88;;;3.75;;
45420;SDS011;55462;47.042;8.292;2023-10-09T03:02:54;14.05;;;3.22;;
45420;SDS011;55462;47.042;8.292;2023-10-09T03:05:23;11.15;;;3.65;;
45420;SDS011;55462;47.042;8.292;2023-10-09T03:07:49;10.77;;;4.38;;
45420;SDS011;55462;47.042;8.292;2023-10-09T03:10:17;10.65;;;3.75;;
45420;SDS011;55462;47.042;8.292;2023-10-09T03:12:42;12.20;;;3.38;;
45420;SDS011;55462;47.042;8.292;2023-10-09T03:15:08;10.25;;;4.03;;
45420;SDS011;55462;47.042;8.292;2023-10-09T03:17:34;14.60;;;4.07;;
45420;SDS011;55462;47.042;8.292;2023-10-09T03:20:06;16.20;;;3.95;;
45420;SDS011;55462;47.042;8.292;2023-10-09T03:22:38;18.40;;;4.68;;
45420;SDS011;55462;47.042;8.292;2023-10-09T03:25:04;9.27;;;3.55;;
45420;SDS011;55462;47.042;8.292;2023-10-09T03:27:36;10.15;;;3.83;;
45420;SDS011;55462;47.042;8.292;2023-10-09T03:30:07;11.77;;;4.00;;
45420;SDS011;55462;47.042;8.292;2023-10-09T03:32:36;14.68;;;4.00;;
45420;SDS011;55462;47.042;8.292;2023-10-09T03:35:01;9.13;;;3.50;;
45420;SDS011;55462;47.042;8.292;2023-10-09T03:37:28;12.52;;;3.88;;
45420;SDS011;55462;47.042;8.292;2023-10-09T03:40:00;10.27;;;3.67;;
45420;SDS011;55462;47.042;8.292;2023-10-09T03:42:26;15.95;;;3.78;;
45420;SDS011;55462;47.042;8.292;2023-10-09T03:44:51;10.95;;;3.55;;
45420;SDS011;55462;47.042;8.292;2023-10-09T03:47:18;16.73;;;4.80;;
45420;SDS011;55462;47.042;8.292;2023-10-09T03:49:47;14.43;;;4.72;;
45420;SDS011;55462;47.042;8.292;2023-10-09T03:52:18;10.65;;;3.67;;
45420;SDS011;55462;47.042;8.292;2023-10-09T03:54:44;17.55;;;3.83;;
45420;SDS011;55462;47.042;8.292;2023-10-09T03:57:11;6.82;;;3.35;;
45420;SDS011;55462;47.042;8.292;2023-10-09T03:59:36;13.80;;;4.00;;
45420;SDS011;55462;47.042;8.292;2023-10-09T04:02:02;12.32;;;3.67;;
45420;SDS011;55462;47.042;8.292;2023-10-09T04:04:29;13.05;;;3.42;;
45420;SDS011;55462;47.042;8.292;2023-10-09T04:06:57;15.40;;;3.72;;
45420;SDS011;55462;47.042;8.292;2023-10-09T04:09:23;7.45;;;3.03;;
45420;SDS011;55462;47.042;8.292;2023-10-09T04:11:49;11.18;;;3.47;;
45420;SDS011;55462;47.042;8.292;2023-10-09T04:14:44;9.25;;;3.38;;
45420;SDS011;55462;47.042;8.292;2023-10-09T04:17:15;14.52;;;3.28;;
45420;SDS011;55462;47.042;8.292;2023-10-09T04:19:46;15.20;;;4.47;;
45420;SDS011;55462;47.042;8.292;2023-10-09T04:22:35;9.07;;;3.22;;
45420;SDS011;55462;47.042;8.292;2023-10-09T04:25:06;11.38;;;4.03;;
45420;SDS011;55462;47.042;8.292;2023-10-09T04:27:42;8.80;;;3.10;;
45420;SDS011;55462;47.042;8.292;2023-10-09T04:30:09;13.45;;;3.90;;
45420;SDS011;55462;47.042;8.292;2023-10-09T04:32:40;19.52;;;3.72;;
45420;SDS011;55462;47.042;8.292;2023-10-09T04:35:09;13.52;;;3.90;;
45420;SDS011;55462;47.042;8.292;2023-10-09T04:37:44;17.10;;;3.40;;
45420;SDS011;55462;47.042;8.292;2023-10-09T04:40:17;7.60;;;3.40;;
45420;SDS011;55462;47.042;8.292;2023-10-09T04:43:01;14.38;;;3.75;;
45420;SDS011;55462;47.042;8.292;2023-10-09T04:45:31;15.52;;;4.40;;
45420;SDS011;55462;47.042;8.292;2023-10-09T04:48:08;11.05;;;3.47;;
45420;SDS011;55462;47.042;8.292;2023-10-09T04:50:35;11.07;;;3.45;;
45420;SDS011;55462;47.042;8.292;2023-10-09T04:53:00;12.98;;;3.75;;
45420;SDS011;55462;47.042;8.292;2023-10-09T04:55:46;14.48;;;4.05;;
45420;SDS011;55462;47.042;8.292;2023-10-09T04:58:25;11.20;;;4.22;;
45420;SDS011;55462;47.042;8.292;2023-10-09T05:00:54;19.77;;;4.80;;
45420;SDS011;55462;47.042;8.292;2023-10-09T05:03:22;9.50;;;3.65;;
45420;SDS011;55462;47.042;8.292;2023-10-09T05:06:07;13.85;;;4.13;;
45420;SDS011;55462;47.042;8.292;2023-10-09T05:08:46;13.38;;;3.80;;
45420;SDS011;55462;47.042;8.292;2023-10-09T05:11:12;10.23;;;4.10;;
45420;SDS011;55462;47.042;8.292;2023-10-09T05:13:59;15.80;;;4.97;;
45420;SDS011;55462;47.042;8.292;2023-10-09T05:16:38;14.95;;;4.30;;
45420;SDS011;55462;47.042;8.292;2023-10-09T05:19:19;15.80;;;4.20;;
45420;SDS011;55462;47.042;8.292;2023-10-09T05:22:03;9.27;;;3.33;;
45420;SDS011;55462;47.042;8.292;2023-10-09T05:24:41;12.07;;;3.58;;
45420;SDS011;55462;47.042;8.292;2023-10-09T05:27:12;11.27;;;3.95;;
45420;SDS011;55462;47.042;8.292;2023-10-09T05:29:44;10.65;;;4.00;;
45420;SDS011;55462;47.042;8.292;2023-10-09T05:32:35;11.32;;;4.10;;
45420;SDS011;55462;47.042;8.292;2023-10-09T05:35:13;14.35;;;4.03;;
45420;SDS011;55462;47.042;8.292;2023-10-09T05:37:40;12.00;;;4.20;;
45420;SDS011;55462;47.042;8.292;2023-10-09T05:40:09;18.17;;;4.45;;
45420;SDS011;55462;47.042;8.292;2023-10-09T05:42:40;6.93;;;3.47;;
45420;SDS011;55462;47.042;8.292;2023-10-09T05:45:06;12.18;;;4.50;;
45420;SDS011;55462;47.042;8.292;2023-10-09T05:47:51;15.20;;;3.60;;
45420;SDS011;55462;47.042;8.292;2023-10-09T05:50:49;17.65;;;4.45;;
45420;SDS011;55462;47.042;8.292;2023-10-09T05:53:33;13.80;;;3.67;;
45420;SDS011;55462;47.042;8.292;2023-10-09T05:56:11;12.13;;;3.60;;
45420;SDS011;55462;47.042;8.292;2023-10-09T05:58:55;6.40;;;3.47;;
45420;SDS011;55462;47.042;8.292;2023-10-09T06:01:39;16.63;;;4.13;;
45420;SDS011;55462;47.042;8.292;2023-10-09T06:04:39;13.23;;;3.30;;
45420;SDS011;55462;47.042;8.292;2023-10-09T06:07:20;15.00;;;4.00;;
45420;SDS011;55462;47.042;8.292;2023-10-09T06:09:49;10.73;;;4.03;;
45420;SDS011;55462;47.042;8.292;2023-10-09T06:12:17;15.20;;;4.45;;
45420;SDS011;55462;47.042;8.292;2023-10-09T06:14:58;13.25;;;4.28;;
45420;SDS011;55462;47.042;8.292;2023-10-09T06:17:43;7.50;;;3.42;;
45420;SDS011;55462;47.042;8.292;2023-10-09T06:20:15;17.08;;;3.70;;
45420;SDS011;55462;47.042;8.292;2023-10-09T06:22:59;9.10;;;3.72;;
45420;SDS011;55462;47.042;8.292;2023-10-09T06:25:40;8.77;;;3.40;;
45420;SDS011;55462;47.042;8.292;2023-10-09T06:28:15;14.23;;;3.75;;
45420;SDS011;55462;47.042;8.292;2023-10-09T06:30:43;10.73;;;4.00;;
45420;SDS011;55462;47.042;8.292;2023-10-09T06:33:12;8.75;;;3.70;;
45420;SDS011;55462;47.042;8.292;2023-10-09T06:35:54;14.77;;;4.07;;
45420;SDS011;55462;47.042;8.292;2023-10-09T06:38:20;10.25;;;3.50;;
45420;SDS011;55462;47.042;8.292;2023-10-09T06:40:51;12.35;;;4.18;;
45420;SDS011;55462;47.042;8.292;2023-10-09T06:43:20;11.30;;;4.03;;
45420;SDS011;55462;47.042;8.292;2023-10-09T06:45:46;16.90;;;4.07;;
45420;SDS011;55462;47.042;8.292;2023-10-09T06:48:19;15.52;;;4.40;;
45420;SDS011;55462;47.042;8.292;2023-10-09T06:53:41;9.23;;;3.80;;
45420;SDS011;55462;47.042;8.292;2023-10-09T06:56:16;16.95;;;4.00;;
45420;SDS011;55462;47.042;8.292;2023-10-09T06:58:51;14.15;;;3.97;;
45420;SDS011;55462;47.042;8.292;2023-10-09T07:01:20;11.07;;;4.07;;
45420;SDS011;55462;47.042;8.292;2023-10-09T07:04:04;11.85;;;4.30;;
45420;SDS011;55462;47.042;8.292;2023-10-09T07:06:56;12.52;;;3.92;;
45420;SDS011;55462;47.042;8.292;2023-10-09T07:09:24;9.30;;;3.70;;
45420;SDS011;55462;47.042;8.292;2023-10-09T07:11:52;11.35;;;3.83;;
45420;SDS011;55462;47.042;8.292;2023-10-09T07:14:21;14.48;;;4.20;;
45420;SDS011;55462;47.042;8.292;2023-10-09T07:16:56;15.00;;;4.40;;
45420;SDS011;55462;47.042;8.292;2023-10-09T07:19:28;15.32;;;5.40;;
45420;SDS011;55462;47.042;8.292;2023-10-09T07:22:21;22.45;;;5.95;;
45420;SDS011;55462;47.042;8.292;2023-10-09T07:24:47;16.98;;;5.00;;
45420;SDS011;55462;47.042;8.292;2023-10-09T07:27:22;19.45;;;5.53;;
45420;SDS011;55462;47.042;8.292;2023-10-09T07:30:07;19.70;;;5.55;;
45420;SDS011;55462;47.042;8.292;2023-10-09T07:35:36;21.88;;;5.65;;
45420;SDS011;55462;47.042;8.292;2023-10-09T07:38:09;29.95;;;6.90;;
45420;SDS011;55462;47.042;8.292;2023-10-09T07:40:40;17.95;;;5.95;;
45420;SDS011;55462;47.042;8.292;2023-10-09T07:43:41;15.10;;;5.18;;
45420;SDS011;55462;47.042;8.292;2023-10-09T07:46:13;22.48;;;5.45;;
45420;SDS011;55462;47.042;8.292;2023-10-09T07:49:01;17.17;;;5.13;;
45420;SDS011;55462;47.042;8.292;2023-10-09T07:51:34;20.63;;;5.22;;
45420;SDS011;55462;47.042;8.292;2023-10-09T07:54:00;18.65;;;5.85;;
45420;SDS011;55462;47.042;8.292;2023-10-09T07:56:35;19.15;;;5.32;;
45420;SDS011;55462;47.042;8.292;2023-10-09T07:59:08;20.30;;;5.20;;
45420;SDS011;55462;47.042;8.292;2023-10-09T08:01:40;23.48;;;5.72;;
45420;SDS011;55462;47.042;8.292;2023-10-09T08:04:20;10.02;;;5.00;;
45420;SDS011;55462;47.042;8.292;2023-10-09T08:07:07;17.75;;;4.97;;
45420;SDS011;55462;47.042;8.292;2023-10-09T08:09:34;15.38;;;5.20;;
45420;SDS011;55462;47.042;8.292;2023-10-09T08:12:11;20.67;;;5.53;;
45420;SDS011;55462;47.042;8.292;2023-10-09T08:14:40;21.60;;;5.63;;
45420;SDS011;55462;47.042;8.292;2023-10-09T08:17:08;18.67;;;4.55;;
45420;SDS011;55462;47.042;8.292;2023-10-09T08:19:40;19.75;;;4.93;;
45420;SDS011;55462;47.042;8.292;2023-10-09T08:22:27;17.15;;;4.53;;
45420;SDS011;55462;47.042;8.292;2023-10-09T08:24:53;18.50;;;4.75;;
45420;SDS011;55462;47.042;8.292;2023-10-09T08:27:24;18.30;;;5.05;;
45420;SDS011;55462;47.042;8.292;2023-10-09T08:32:41;20.55;;;4.95;;
45420;SDS011;55462;47.042;8.292;2023-10-09T08:35:08;17.10;;;4.90;;
45420;SDS011;55462;47.042;8.292;2023-10-09T08:37:51;15.05;;;4.38;;
45420;SDS011;55462;47.042;8.292;2023-10-09T08:40:18;17.92;;;4.90;;
45420;SDS011;55462;47.042;8.292;2023-10-09T08:42:47;15.68;;;5.15;;
45420;SDS011;55462;47.042;8.292;2023-10-09T08:45:19;18.33;;;5.00;;
45420;SDS011;55462;47.042;8.292;2023-10-09T08:47:53;16.35;;;4.50;;
45420;SDS011;55462;47.042;8.292;2023-10-09T08:50:19;14.88;;;4.93;;
45420;SDS011;55462;47.042;8.292;2023-10-09T08:52:46;12.25;;;4.10;;
45420;SDS011;55462;47.042;8.292;2023-10-09T08:55:13;24.45;;;5.00;;
45420;SDS011;55462;47.042;8.292;2023-10-09T08:57:41;20.30;;;4.90;;
45420;SDS011;55462;47.042;8.292;2023-10-09T09:00:09;12.93;;;4.85;;
45420;SDS011;55462;47.042;8.292;2023-10-09T09:02:46;18.33;;;4.65;;
45420;SDS011;55462;47.042;8.292;2023-10-09T09:05:19;14.48;;;4.25;;
45420;SDS011;55462;47.042;8.292;2023-10-09T09:07:46;16.92;;;4.50;;
45420;SDS011;55462;47.042;8.292;2023-10-09T09:10:11;15.60;;;5.38;;
45420;SDS011;55462;47.042;8.292;2023-10-09T09:12:46;16.50;;;4.80;;
45420;SDS011;55462;47.042;8.292;2023-10-09T09:15:15;12.98;;;5.00;;
45420;SDS011;55462;47.042;8.292;2023-10-09T09:17:44;16.67;;;5.70;;
45420;SDS011;55462;47.042;8.292;2023-10-09T09:22:56;15.55;;;4.63;;
45420;SDS011;55462;47.042;8.292;2023-10-09T09:25:21;16.70;;;4.97;;
45420;SDS011;55462;47.042;8.292;2023-10-09T09:27:49;18.92;;;5.30;;
45420;SDS011;55462;47.042;8.292;2023-10-09T09:30:27;16.25;;;5.20;;
45420;SDS011;55462;47.042;8.292;2023-10-09T09:33:18;19.50;;;4.78;;
45420;SDS011;55462;47.042;8.292;2023-10-09T09:38:29;12.93;;;4.65;;
45420;SDS011;55462;47.042;8.292;2023-10-09T09:41:06;12.88;;;4.45;;
45420;SDS011;55462;47.042;8.292;2023-10-09T09:43:33;13.38;;;4.68;;
45420;SDS011;55462;47.042;8.292;2023-10-09T09:46:00;11.35;;;4.45;;
45420;SDS011;55462;47.042;8.292;2023-10-09T09:48:32;22.13;;;5.20;;
45420;SDS011;55462;47.042;8.292;2023-10-09T09:50:58;17.58;;;5.38;;
45420;SDS011;55462;47.042;8.292;2023-10-09T09:53:26;13.60;;;5.40;;
45420;SDS011;55462;47.042;8.292;2023-10-09T09:55:52;22.48;;;5.18;;
45420;SDS011;55462;47.042;8.292;2023-10-09T09:58:24;13.80;;;5.32;;
45420;SDS011;55462;47.042;8.292;2023-10-09T10:00:52;25.30;;;6.28;;
45420;SDS011;55462;47.042;8.292;2023-10-09T10:03:28;16.95;;;6.35;;
45420;SDS011;55462;47.042;8.292;2023-10-09T10:05:57;19.40;;;6.40;;
45420;SDS011;55462;47.042;8.292;2023-10-09T10:08:24;20.33;;;5.53;;
45420;SDS011;55462;47.042;8.292;2023-10-09T10:10:59;18.50;;;6.50;;
45420;SDS011;55462;47.042;8.292;2023-10-09T10:16:10;16.83;;;5.45;;
45420;SDS011;55462;47.042;8.292;2023-10-09T10:19:02;20.33;;;6.10;;
45420;SDS011;55462;47.042;8.292;2023-10-09T10:21:32;17.23;;;6.35;;
45420;SDS011;55462;47.042;8.292;2023-10-09T10:24:03;17.80;;;5.32;;
45420;SDS011;55462;47.042;8.292;2023-10-09T10:26:34;21.42;;;6.22;;
45420;SDS011;55462;47.042;8.292;2023-10-09T10:29:16;18.70;;;6.35;;
45420;SDS011;55462;47.042;8.292;2023-10-09T10:34:19;20.25;;;6.03;;
45420;SDS011;55462;47.042;8.292;2023-10-09T10:36:48;13.85;;;5.50;;
45420;SDS011;55462;47.042;8.292;2023-10-09T10:39:17;20.08;;;5.47;;
45420;SDS011;55462;47.042;8.292;2023-10-09T10:41:55;18.65;;;5.78;;
45420;SDS011;55462;47.042;8.292;2023-10-09T10:44:29;18.15;;;5.82;;
45420;SDS011;55462;47.042;8.292;2023-10-09T10:47:07;15.00;;;5.53;;
45420;SDS011;55462;47.042;8.292;2023-10-09T10:49:53;17.77;;;5.85;;
45420;SDS011;55462;47.042;8.292;2023-10-09T10:52:45;18.77;;;5.53;;
45420;SDS011;55462;47.042;8.292;2023-10-09T10:55:22;19.92;;;5.50;;
45420;SDS011;55462;47.042;8.292;2023-10-09T10:57:56;20.77;;;5.20;;
45420;SDS011;55462;47.042;8.292;2023-10-09T11:00:35;17.58;;;5.07;;
45420;SDS011;55462;47.042;8.292;2023-10-09T11:03:22;18.25;;;4.90;;
45420;SDS011;55462;47.042;8.292;2023-10-09T11:06:06;18.35;;;5.38;;
45420;SDS011;55462;47.042;8.292;2023-10-09T11:08:43;15.70;;;5.30;;
45420;SDS011;55462;47.042;8.292;2023-10-09T11:11:24;14.27;;;4.03;;
45420;SDS011;55462;47.042;8.292;2023-10-09T11:14:07;13.57;;;4.93;;
45420;SDS011;55462;47.042;8.292;2023-10-09T11:16:36;18.55;;;5.50;;
45420;SDS011;55462;47.042;8.292;2023-10-09T11:19:28;17.25;;;5.35;;
45420;SDS011;55462;47.042;8.292;2023-10-09T11:21:52;14.15;;;5.88;;
45420;SDS011;55462;47.042;8.292;2023-10-09T11:24:44;12.00;;;4.50;;
45420;SDS011;55462;47.042;8.292;2023-10-09T11:27:12;18.05;;;5.38;;
45420;SDS011;55462;47.042;8.292;2023-10-09T11:29:50;16.45;;;5.32;;
45420;SDS011;55462;47.042;8.292;2023-10-09T11:32:19;15.50;;;4.35;;
45420;SDS011;55462;47.042;8.292;2023-10-09T11:34:49;18.88;;;4.65;;
45420;SDS011;55462;47.042;8.292;2023-10-09T11:37:22;17.63;;;4.82;;
45420;SDS011;55462;47.042;8.292;2023-10-09T11:39:54;13.25;;;4.80;;
45420;SDS011;55462;47.042;8.292;2023-10-09T11:42:21;18.63;;;4.63;;
45420;SDS011;55462;47.042;8.292;2023-10-09T11:45:06;15.35;;;5.30;;
45420;SDS011;55462;47.042;8.292;2023-10-09T11:48:15;21.17;;;4.85;;
45420;SDS011;55462;47.042;8.292;2023-10-09T11:50:58;15.10;;;4.97;;
45420;SDS011;55462;47.042;8.292;2023-10-09T11:53:39;17.77;;;5.47;;
45420;SDS011;55462;47.042;8.292;2023-10-09T11:56:08;23.83;;;5.65;;
45420;SDS011;55462;47.042;8.292;2023-10-09T11:58:38;19.27;;;5.72;;
45420;SDS011;55462;47.042;8.292;2023-10-09T12:01:10;12.98;;;5.13;;
45420;SDS011;55462;47.042;8.292;2023-10-09T12:03:45;17.02;;;4.97;;
45420;SDS011;55462;47.042;8.292;2023-10-09T12:06:17;18.95;;;6.15;;
45420;SDS011;55462;47.042;8.292;2023-10-09T12:08:55;14.93;;;5.85;;
45420;SDS011;55462;47.042;8.292;2023-10-09T12:11:23;16.95;;;5.20;;
45420;SDS011;55462;47.042;8.292;2023-10-09T12:13:53;17.38;;;5.28;;
45420;SDS011;55462;47.042;8.292;2023-10-09T12:16:21;16.35;;;5.43;;
45420;SDS011;55462;47.042;8.292;2023-10-09T12:18:47;20.42;;;6.18;;
45420;SDS011;55462;47.042;8.292;2023-10-09T12:21:18;20.13;;;5.75;;
45420;SDS011;55462;47.042;8.292;2023-10-09T12:23:43;13.88;;;5.47;;
45420;SDS011;55462;47.042;8.292;2023-10-09T12:26:12;20.42;;;5.22;;
45420;SDS011;55462;47.042;8.292;2023-10-09T12:28:39;16.73;;;5.28;;
45420;SDS011;55462;47.042;8.292;2023-10-09T12:31:15;14.57;;;4.70;;
45420;SDS011;55462;47.042;8.292;2023-10-09T12:33:41;16.38;;;5.00;;
45420;SDS011;55462;47.042;8.292;2023-10-09T12:36:11;15.93;;;5.80;;
45420;SDS011;55462;47.042;8.292;2023-10-09T12:38:44;18.98;;;6.07;;
45420;SDS011;55462;47.042;8.292;2023-10-09T12:41:15;14.32;;;5.07;;
45420;SDS011;55462;47.042;8.292;2023-10-09T12:43:56;13.70;;;4.55;;
45420;SDS011;55462;47.042;8.292;2023-10-09T12:46:24;26.90;;;5.18;;
45420;SDS011;55462;47.042;8.292;2023-10-09T12:48:53;18.08;;;5.68;;
45420;SDS011;55462;47.042;8.292;2023-10-09T12:51:20;15.00;;;5.03;;
45420;SDS011;55462;47.042;8.292;2023-10-09T12:53:46;18.02;;;5.18;;
45420;SDS011;55462;47.042;8.292;2023-10-09T12:56:13;18.13;;;5.75;;
45420;SDS011;55462;47.042;8.292;2023-10-09T12:58:40;23.58;;;5.38;;
45420;SDS011;55462;47.042;8.292;2023-10-09T13:01:17;20.55;;;4.82;;
45420;SDS011;55462;47.042;8.292;2023-10-09T13:03:44;16.33;;;5.45;;
45420;SDS011;55462;47.042;8.292;2023-10-09T13:06:09;15.98;;;4.88;;
45420;SDS011;55462;47.042;8.292;2023-10-09T13:08:37;18.67;;;5.10;;
45420;SDS011;55462;47.042;8.292;2023-10-09T13:11:06;19.77;;;5.03;;
45420;SDS011;55462;47.042;8.292;2023-10-09T13:13:36;19.85;;;6.07;;
45420;SDS011;55462;47.042;8.292;2023-10-09T13:16:18;22.75;;;6.35;;
45420;SDS011;55462;47.042;8.292;2023-10-09T13:18:51;19.75;;;5.50;;
45420;SDS011;55462;47.042;8.292;2023-10-09T13:21:18;14.38;;;4.75;;
45420;SDS011;55462;47.042;8.292;2023-10-09T13:23:44;19.13;;;5.20;;
45420;SDS011;55462;47.042;8.292;2023-10-09T13:26:13;16.20;;;5.60;;
45420;SDS011;55462;47.042;8.292;2023-10-09T13:28:49;18.35;;;4.65;;
45420;SDS011;55462;47.042;8.292;2023-10-09T13:31:15;15.48;;;4.93;;
45420;SDS011;55462;47.042;8.292;2023-10-09T13:33:43;20.27;;;5.22;;
45420;SDS011;55462;47.042;8.292;2023-10-09T13:36:09;12.70;;;5.07;;
45420;SDS011;55462;47.042;8.292;2023-10-09T13:38:42;17.98;;;5.35;;
45420;SDS011;55462;47.042;8.292;2023-10-09T13:41:08;17.90;;;5.13;;
45420;SDS011;55462;47.042;8.292;2023-10-09T13:43:38;21.30;;;4.88;;
45420;SDS011;55462;47.042;8.292;2023-10-09T13:46:06;18.45;;;4.93;;
45420;SDS011;55462;47.042;8.292;2023-10-09T13:48:33;23.73;;;5.40;;
45420;SDS011;55462;47.042;8.292;2023-10-09T13:51:03;16.90;;;5.40;;
45420;SDS011;55462;47.042;8.292;2023-10-09T13:53:34;16.60;;;5.50;;
45420;SDS011;55462;47.042;8.292;2023-10-09T13:56:10;16.55;;;4.90;;
45420;SDS011;55462;47.042;8.292;2023-10-09T13:58:45;20.60;;;5.20;;
45420;SDS011;55462;47.042;8.292;2023-10-09T14:01:11;17.27;;;5.00;;
45420;SDS011;55462;47.042;8.292;2023-10-09T14:03:45;18.02;;;4.70;;
45420;SDS011;55462;47.042;8.292;2023-10-09T14:06:17;17.33;;;4.43;;
45420;SDS011;55462;47.042;8.292;2023-10-09T14:08:55;17.33;;;5.32;;
45420;SDS011;55462;47.042;8.292;2023-10-09T14:11:20;18.73;;;4.93;;
45420;SDS011;55462;47.042;8.292;2023-10-09T14:13:45;15.32;;;4.53;;
45420;SDS011;55462;47.042;8.292;2023-10-09T14:16:13;19.15;;;4.68;;
45420;SDS011;55462;47.042;8.292;2023-10-09T14:18:52;16.02;;;4.65;;
45420;SDS011;55462;47.042;8.292;2023-10-09T14:21:19;19.08;;;5.25;;
45420;SDS011;55462;47.042;8.292;2023-10-09T14:23:53;16.73;;;4.70;;
45420;SDS011;55462;47.042;8.292;2023-10-09T14:26:22;22.48;;;5.05;;
45420;SDS011;55462;47.042;8.292;2023-10-09T14:28:48;17.65;;;5.28;;
45420;SDS011;55462;47.042;8.292;2023-10-09T14:31:15;21.77;;;4.75;;
45420;SDS011;55462;47.042;8.292;2023-10-09T14:33:46;20.45;;;4.88;;
45420;SDS011;55462;47.042;8.292;2023-10-09T14:36:16;20.95;;;5.43;;
45420;SDS011;55462;47.042;8.292;2023-10-09T14:38:43;19.83;;;5.43;;
45420;SDS011;55462;47.042;8.292;2023-10-09T14:41:11;21.33;;;5.68;;
45420;SDS011;55462;47.042;8.292;2023-10-09T14:43:37;16.20;;;4.53;;
45420;SDS011;55462;47.042;8.292;2023-10-09T14:46:02;13.60;;;4.43;;
45420;SDS011;55462;47.042;8.292;2023-10-09T14:48:30;22.13;;;5.72;;
45420;SDS011;55462;47.042;8.292;2023-10-09T14:51:02;16.02;;;5.00;;
45420;SDS011;55462;47.042;8.292;2023-10-09T14:53:30;14.52;;;4.97;;
45420;SDS011;55462;47.042;8.292;2023-10-09T14:55:55;21.50;;;5.53;;
45420;SDS011;55462;47.042;8.292;2023-10-09T14:58:21;15.80;;;5.57;;
45420;SDS011;55462;47.042;8.292;2023-10-09T15:00:49;16.52;;;4.97;;
45420;SDS011;55462;47.042;8.292;2023-10-09T15:03:16;19.55;;;5.68;;
45420;SDS011;55462;47.042;8.292;2023-10-09T15:05:44;17.50;;;5.32;;
45420;SDS011;55462;47.042;8.292;2023-10-09T15:08:10;14.05;;;5.32;;
45420;SDS011;55462;47.042;8.292;2023-10-09T15:10:43;20.70;;;5.15;;
45420;SDS011;55462;47.042;8.292;2023-10-09T15:13:16;19.38;;;5.68;;
45420;SDS011;55462;47.042;8.292;2023-10-09T15:15:45;21.13;;;5.15;;
45420;SDS011;55462;47.042;8.292;2023-10-09T15:18:11;16.05;;;5.18;;
45420;SDS011;55462;47.042;8.292;2023-10-09T15:20:39;15.38;;;5.10;;
45420;SDS011;55462;47.042;8.292;2023-10-09T15:23:05;17.63;;;5.10;;
45420;SDS011;55462;47.042;8.292;2023-10-09T15:25:31;18.85;;;5.13;;